Time;durP1;ratioP1;P1;durP2;ratioP2;P2;SDS_P1;SDS_P2;PMS_P1;PMS_P2;Temp;Humidity;BMP_temperature;BMP_pressure;BME280_temperature;BME280_humidity;BME280_pressure;Samples;Min_cycle;Max_cycle;Signal;HPM_P1;HPM_P2
2023/12/01 00:01:04;;;;;;;10.95;6.03;;;;;;;18.82;34.75;100274.16;5007538;28;20068;-65
2023/12/01 00:03:29;;;;;;;8.82;6.00;;;;;;;18.83;34.61;100286.38;5008070;28;20518;-66
2023/12/01 00:05:55;;;;;;;9.30;5.90;;;;;;;18.80;34.60;100287.50;5007212;28;20501;-65
2023/12/01 00:08:20;;;;;;;9.18;5.80;;;;;;;18.79;34.45;100287.66;5007824;28;20038;-65
2023/12/01 00:10:45;;;;;;;9.00;5.90;;;;;;;18.77;34.49;100293.06;5007397;28;20374;-66
2023/12/01 00:13:10;;;;;;;8.82;5.82;;;;;;;18.75;34.52;100289.72;5007475;28;20038;-66
2023/12/01 00:15:36;;;;;;;8.93;6.38;;;;;;;18.76;34.50;100287.94;5007423;28;20425;-66
2023/12/01 00:18:01;;;;;;;9.63;6.60;;;;;;;18.75;34.58;100291.53;5007089;28;20034;-67
2023/12/01 00:20:26;;;;;;;8.75;5.80;;;;;;;18.71;34.32;100295.41;5007365;28;20275;-66
2023/12/01 00:22:52;;;;;;;8.45;5.88;;;;;;;18.71;34.40;100301.56;5007607;28;20132;-66
2023/12/01 00:25:18;;;;;;;9.55;6.40;;;;;;;18.69;34.40;100303.47;5007207;28;20072;-65
2023/12/01 00:27:43;;;;;;;9.70;6.43;;;;;;;18.66;34.35;100299.34;5007053;28;20053;-65
2023/12/01 00:30:09;;;;;;;9.00;5.75;;;;;;;18.64;34.30;100300.44;5006871;28;20042;-66
2023/12/01 00:32:34;;;;;;;8.65;5.82;;;;;;;18.65;34.52;100307.41;5006935;28;20056;-66
2023/12/01 00:34:59;;;;;;;8.93;6.22;;;;;;;18.61;34.15;100300.72;5007492;28;20087;-65
2023/12/01 00:37:24;;;;;;;9.57;6.40;;;;;;;18.62;34.12;100311.13;5007200;28;20040;-66
2023/12/01 00:39:50;;;;;;;8.70;6.13;;;;;;;18.60;34.00;100304.34;5007196;28;20305;-66
2023/12/01 00:42:15;;;;;;;8.77;6.82;;;;;;;18.59;34.28;100306.13;5007069;28;20037;-68
2023/12/01 00:44:40;;;;;;;9.15;6.07;;;;;;;18.58;34.24;100303.63;5007060;28;20359;-66
2023/12/01 00:47:06;;;;;;;8.23;6.10;;;;;;;18.56;34.35;100309.06;5006538;28;20032;-66
2023/12/01 00:49:31;;;;;;;8.45;6.22;;;;;;;18.56;34.03;100311.69;5006776;28;20021;-66
2023/12/01 00:51:57;;;;;;;9.67;6.47;;;;;;;18.55;34.06;100315.31;5006979;28;20034;-65
2023/12/01 00:54:23;;;;;;;10.02;6.15;;;;;;;18.53;34.15;100311.16;5006991;28;20756;-67
2023/12/01 00:56:48;;;;;;;8.75;6.55;;;;;;;18.52;34.08;100315.59;5006680;28;20034;-66
2023/12/01 00:59:13;;;;;;;10.43;6.70;;;;;;;18.51;33.99;100308.66;5007178;28;20037;-65
2023/12/01 01:01:39;;;;;;;8.55;6.30;;;;;;;18.49;33.88;100318.53;5006367;28;20052;-66
2023/12/01 01:04:04;;;;;;;9.18;6.40;;;;;;;18.50;33.83;100322.84;5006777;28;20108;-67
2023/12/01 01:06:29;;;;;;;8.95;6.43;;;;;;;18.48;33.94;100319.47;5007009;28;20087;-66
2023/12/01 01:08:55;;;;;;;9.93;6.70;;;;;;;18.47;33.92;100323.94;5006770;28;20355;-66
2023/12/01 01:11:20;;;;;;;9.60;6.57;;;;;;;18.46;33.92;100327.53;5006835;28;20385;-66
2023/12/01 01:13:45;;;;;;;9.90;6.80;;;;;;;18.46;34.06;100335.44;5009471;28;20466;-66
2023/12/01 01:16:10;;;;;;;8.50;5.95;;;;;;;18.44;33.89;100334.75;5010775;28;20033;-66
2023/12/01 01:18:36;;;;;;;10.25;6.50;;;;;;;18.42;34.09;100328.81;4993074;28;20044;-66
2023/12/01 01:21:01;;;;;;;9.05;5.72;;;;;;;18.44;34.15;100331.31;5010424;28;20064;-65
2023/12/01 01:23:26;;;;;;;9.50;6.60;;;;;;;18.43;33.60;100329.63;5010659;28;20030;-65
2023/12/01 01:25:52;;;;;;;9.00;5.65;;;;;;;18.43;33.94;100337.53;5010579;28;20030;-67
2023/12/01 01:28:17;;;;;;;8.93;6.32;;;;;;;18.42;34.03;100338.50;5010476;28;20026;-66
2023/12/01 01:30:42;;;;;;;9.75;6.28;;;;;;;18.40;33.85;100340.47;5009512;28;20470;-67
2023/12/01 01:33:08;;;;;;;8.70;5.82;;;;;;;18.39;33.68;100344.91;5010482;28;20100;-65
2023/12/01 01:35:33;;;;;;;9.88;6.45;;;;;;;18.40;33.73;100340.47;5009825;28;20038;-67
2023/12/01 01:37:59;;;;;;;9.70;6.57;;;;;;;18.39;33.65;100344.91;5009212;28;20136;-66
2023/12/01 01:40:24;;;;;;;9.85;6.32;;;;;;;18.38;33.79;100337.97;5010247;28;20121;-65
2023/12/01 01:42:49;;;;;;;9.68;6.65;;;;;;;18.37;33.94;100346.84;5010519;28;20053;-65
2023/12/01 01:45:14;;;;;;;11.68;7.15;;;;;;;18.34;33.88;100339.22;5009879;28;20034;-66
2023/12/01 01:47:41;;;;;;;10.32;6.43;;;;;;;18.36;33.78;100339.06;5010110;28;20040;-65
2023/12/01 01:50:07;;;;;;;8.75;5.97;;;;;;;18.33;33.78;100342.81;5010137;28;20056;-65
2023/12/01 01:52:35;;;;;;;10.13;6.95;;;;;;;18.31;33.60;100344.78;5010204;28;20026;-66
2023/12/01 01:55:01;;;;;;;10.48;6.60;;;;;;;18.33;33.33;100348.09;5010092;28;20029;-65
2023/12/01 01:57:28;;;;;;;10.80;7.40;;;;;;;18.32;33.76;100351.69;5009666;28;20080;-66
2023/12/01 01:59:54;;;;;;;9.15;6.47;;;;;;;18.30;33.72;100357.09;5010742;28;20058;-68
2023/12/01 02:02:19;;;;;;;10.35;7.22;;;;;;;18.28;33.57;100351.16;5009669;28;20068;-66
2023/12/01 02:04:44;;;;;;;9.43;6.68;;;;;;;18.28;33.61;100351.16;5010054;28;20038;-67
2023/12/01 02:07:26;;;;;;;10.38;6.68;;;;;;;18.28;33.58;100358.22;5009469;28;20038;-64
2023/12/01 02:09:51;;;;;;;11.30;7.20;;;;;;;18.28;33.67;100366.16;5010110;28;20517;-65
2023/12/01 02:12:16;;;;;;;10.60;6.72;;;;;;;18.25;33.51;100367.25;5009827;28;20030;-66
2023/12/01 02:14:42;;;;;;;11.02;7.22;;;;;;;18.26;33.50;100363.66;5009782;28;20028;-66
2023/12/01 02:17:07;;;;;;;10.05;6.88;;;;;;;18.26;33.76;100365.44;5009500;28;20037;-65
2023/12/01 02:19:32;;;;;;;11.73;7.68;;;;;;;18.24;33.64;100362.94;5009748;28;20022;-65
2023/12/01 02:21:58;;;;;;;10.47;7.50;;;;;;;18.23;33.48;100363.06;5009645;28;20025;-66
2023/12/01 02:24:23;;;;;;;11.18;6.97;;;;;;;18.21;33.42;100372.94;5009296;28;20681;-66
2023/12/01 02:26:48;;;;;;;11.73;7.78;;;;;;;18.21;33.26;100373.75;5009635;28;20028;-66
2023/12/01 02:29:13;;;;;;;11.90;7.50;;;;;;;18.22;33.57;100374.59;5007303;28;20049;-65
2023/12/01 02:31:39;;;;;;;11.15;7.20;;;;;;;18.20;33.65;100371.25;5009117;28;20092;-66
2023/12/01 02:34:04;;;;;;;10.43;6.63;;;;;;;18.17;33.65;100375.00;5009110;28;20529;-65
2023/12/01 02:36:30;;;;;;;10.85;6.90;;;;;;;18.17;33.63;100372.38;5008957;28;20137;-66
2023/12/01 02:38:56;;;;;;;12.88;7.40;;;;;;;18.17;33.26;100377.66;5009156;28;20117;-66
2023/12/01 02:41:21;;;;;;;10.63;7.25;;;;;;;18.17;33.31;100374.19;5009265;28;20030;-67
2023/12/01 02:43:46;;;;;;;11.80;7.47;;;;;;;18.13;33.30;100369.19;5009342;28;20146;-66
2023/12/01 02:46:12;;;;;;;10.88;7.03;;;;;;;18.12;33.34;100372.78;5008999;28;20026;-68
2023/12/01 02:48:41;;;;;;;9.48;6.43;;;;;;;18.13;33.35;100376.25;5009072;28;20095;-67
2023/12/01 02:51:07;;;;;;;11.45;7.72;;;;;;;18.12;33.42;100370.16;5009056;28;20458;-65
2023/12/01 02:53:32;;;;;;;11.88;7.55;;;;;;;18.13;33.63;100373.59;4991548;28;20029;-66
2023/12/01 02:55:57;;;;;;;11.27;7.40;;;;;;;18.10;33.40;100363.31;5008676;28;20033;-65
2023/12/01 02:58:24;;;;;;;11.63;7.13;;;;;;;18.09;33.56;100372.22;5008929;28;20017;-66
2023/12/01 03:00:49;;;;;;;11.18;6.68;;;;;;;18.10;33.29;100374.72;5008760;28;20041;-67
2023/12/01 03:03:14;;;;;;;12.55;7.72;;;;;;;18.11;33.41;100370.28;5008973;28;20829;-66
2023/12/01 03:05:40;;;;;;;11.45;7.30;;;;;;;18.12;33.05;100375.41;5008953;28;20038;-66
2023/12/01 03:08:05;;;;;;;12.15;7.63;;;;;;;18.12;33.08;100372.78;5008440;28;20033;-66
2023/12/01 03:10:30;;;;;;;12.52;7.90;;;;;;;18.09;33.07;100372.22;5007466;28;20398;-66
2023/12/01 03:12:56;;;;;;;12.13;7.53;;;;;;;18.06;33.31;100370.69;5008794;28;20073;-66
2023/12/01 03:15:21;;;;;;;13.52;8.05;;;;;;;18.03;33.04;100365.69;5008577;28;20069;-66
2023/12/01 03:17:47;;;;;;;11.60;7.07;;;;;;;18.03;33.19;100365.69;5008417;28;20463;-65
2023/12/01 03:20:14;;;;;;;11.93;7.75;;;;;;;18.07;33.02;100377.63;5008881;28;20438;-66
2023/12/01 03:22:46;;;;;;;12.13;7.40;;;;;;;18.03;33.19;100381.50;5008457;28;20022;-66
2023/12/01 03:25:12;;;;;;;13.07;7.50;;;;;;;18.04;33.27;100377.03;5008482;28;20045;-67
2023/12/01 03:27:42;;;;;;;12.57;7.32;;;;;;;18.01;33.45;100377.31;5007886;28;20038;-66
2023/12/01 03:30:13;;;;;;;10.90;7.15;;;;;;;18.02;33.39;100382.47;5007845;28;21553;-66
2023/12/01 03:32:50;;;;;;;11.85;7.13;;;;;;;18.01;33.24;100382.59;5008115;28;20103;-65
2023/12/01 03:35:17;;;;;;;13.00;7.13;;;;;;;18.00;33.29;100378.31;5006501;28;20041;-66
2023/12/01 03:37:45;;;;;;;12.32;7.90;;;;;;;17.98;33.25;100382.88;5007842;28;20038;-65
2023/12/01 03:40:13;;;;;;;14.05;8.13;;;;;;;17.99;32.87;100388.03;5008331;28;20382;-67
2023/12/01 03:42:42;;;;;;;13.63;8.30;;;;;;;17.97;33.39;100381.22;5006685;28;20037;-67
2023/12/01 03:45:10;;;;;;;12.35;8.05;;;;;;;17.97;33.12;100381.22;5008146;28;20087;-66
2023/12/01 03:47:36;;;;;;;14.23;8.10;;;;;;;17.99;33.27;100389.81;5007967;28;20037;-66
2023/12/01 03:50:03;;;;;;;11.45;7.53;;;;;;;17.98;33.07;100385.53;5008006;28;20041;-66
2023/12/01 03:52:29;;;;;;;11.93;7.70;;;;;;;17.97;33.26;100391.75;5007991;28;20152;-67
2023/12/01 03:54:55;;;;;;;14.27;8.45;;;;;;;17.95;33.20;100391.88;5007673;28;20101;-66
2023/12/01 03:57:20;;;;;;;13.30;8.98;;;;;;;17.94;33.41;100400.75;5007603;28;20037;-67
2023/12/01 03:59:45;;;;;;;14.05;8.50;;;;;;;17.92;33.30;100394.78;5007746;28;20108;-65
2023/12/01 04:02:11;;;;;;;13.27;7.80;;;;;;;17.93;33.36;100397.28;5007377;28;20042;-66
2023/12/01 04:04:37;;;;;;;14.17;8.57;;;;;;;17.93;33.21;100402.56;5007625;28;20057;-66
2023/12/01 04:07:07;;;;;;;14.73;8.73;;;;;;;17.92;32.87;100400.06;5007662;28;20337;-67
2023/12/01 04:09:32;;;;;;;14.50;8.40;;;;;;;17.92;33.37;100400.06;5007486;28;20026;-66
2023/12/01 04:11:58;;;;;;;14.05;8.88;;;;;;;17.89;32.96;100402.97;5007652;28;20037;-66
2023/12/01 04:14:23;;;;;;;15.02;8.65;;;;;;;17.91;33.28;100414.19;5007399;28;20042;-65
2023/12/01 04:16:48;;;;;;;14.57;9.20;;;;;;;17.89;32.96;100416.97;5006981;28;20715;-65
2023/12/01 04:19:14;;;;;;;14.83;8.77;;;;;;;17.88;32.96;100423.22;5007423;28;20313;-67
2023/12/01 04:21:39;;;;;;;15.18;8.68;;;;;;;17.92;33.03;100426.44;5007358;28;20333;-65
2023/12/01 04:24:06;;;;;;;15.20;8.57;;;;;;;17.87;33.13;100426.78;5007606;28;20066;-66
2023/12/01 04:26:32;;;;;;;15.32;9.23;;;;;;;17.91;33.18;100427.38;5007150;28;20504;-65
2023/12/01 04:28:57;;;;;;;13.02;8.05;;;;;;;17.87;32.99;100428.59;5006832;28;20105;-65
2023/12/01 04:31:23;;;;;;;15.95;8.65;;;;;;;17.86;33.25;100435.66;5006962;28;20046;-65
2023/12/01 04:33:48;;;;;;;14.63;8.38;;;;;;;17.85;33.07;100436.66;5007546;28;20374;-66
2023/12/01 04:36:14;;;;;;;15.75;8.43;;;;;;;17.89;33.08;100438.06;5007142;28;20065;-67
2023/12/01 04:38:39;;;;;;;13.50;7.88;;;;;;;17.88;32.97;100435.56;5007414;28;20033;-66
2023/12/01 04:41:09;;;;;;;13.20;8.48;;;;;;;17.84;33.06;100440.22;5006919;28;20029;-65
2023/12/01 04:43:39;;;;;;;15.60;9.43;;;;;;;17.85;33.11;100447.19;5006882;28;20038;-66
2023/12/01 04:46:05;;;;;;;15.52;8.95;;;;;;;17.83;33.16;100445.63;5007025;28;20386;-67
2023/12/01 04:48:30;;;;;;;14.82;7.80;;;;;;;17.80;33.04;100444.13;5006519;28;20113;-67
2023/12/01 04:50:56;;;;;;;15.07;9.05;;;;;;;17.81;32.99;100448.41;5007099;28;20037;-65
2023/12/01 04:53:22;;;;;;;15.38;8.85;;;;;;;17.79;32.83;100447.72;5006638;28;20045;-65
2023/12/01 04:55:47;;;;;;;13.63;8.60;;;;;;;17.81;33.04;100455.50;5006312;28;20036;-65
2023/12/01 04:58:12;;;;;;;15.82;8.77;;;;;;;17.81;32.83;100456.31;5007359;28;20121;-65
2023/12/01 05:00:38;;;;;;;13.90;8.80;;;;;;;17.81;32.81;100458.13;5005726;28;20041;-66
2023/12/01 05:03:07;;;;;;;14.88;8.45;;;;;;;17.80;32.76;100461.72;5006269;28;20064;-65
2023/12/01 05:05:37;;;;;;;17.40;9.57;;;;;;;17.77;33.04;100463.66;5006936;28;20482;-66
2023/12/01 05:08:05;;;;;;;16.95;9.68;;;;;;;17.79;33.08;100470.59;5006915;28;20030;-64
2023/12/01 05:10:31;;;;;;;16.92;9.43;;;;;;;17.76;32.90;100467.25;5006862;28;20040;-67
2023/12/01 05:13:02;;;;;;;17.17;9.45;;;;;;;17.74;33.05;100471.81;5007012;28;21619;-66
2023/12/01 05:15:30;;;;;;;15.80;9.50;;;;;;;17.76;32.85;100469.88;5006309;28;20441;-65
2023/12/01 05:17:58;;;;;;;16.92;9.80;;;;;;;17.77;32.96;100468.09;4989266;28;20030;-65
2023/12/01 05:20:25;;;;;;;16.98;9.40;;;;;;;17.76;33.00;100472.53;5006604;28;20048;-66
2023/12/01 05:22:55;;;;;;;18.10;10.10;;;;;;;17.76;32.71;100476.97;5006590;28;20030;-65
2023/12/01 05:25:21;;;;;;;15.45;9.30;;;;;;;17.75;32.96;100475.28;5006729;28;20451;-67
2023/12/01 05:27:49;;;;;;;17.45;10.10;;;;;;;17.72;32.70;100481.66;5006686;28;20084;-66
2023/12/01 05:30:16;;;;;;;14.82;9.32;;;;;;;17.72;33.14;100481.66;5006338;28;20030;-66
2023/12/01 05:32:44;;;;;;;17.73;9.43;;;;;;;17.71;33.04;100476.53;5006022;28;20046;-66
2023/12/01 05:35:10;;;;;;;16.13;9.05;;;;;;;17.69;33.15;100487.19;5006659;28;20038;-65
2023/12/01 05:37:40;;;;;;;16.27;9.32;;;;;;;17.72;33.68;100489.59;5006519;28;20049;-68
2023/12/01 05:40:08;;;;;;;16.67;8.98;;;;;;;17.73;34.08;100490.41;5006706;28;20446;-65
2023/12/01 05:42:34;;;;;;;13.50;7.90;;;;;;;17.76;34.13;100493.59;5006455;28;20100;-65
2023/12/01 05:44:59;;;;;;;15.48;8.50;;;;;;;17.82;34.24;100501.97;5006601;28;20038;-66
2023/12/01 05:47:24;;;;;;;13.25;8.20;;;;;;;17.86;33.94;100504.19;5006291;28;20022;-65
2023/12/01 05:49:50;;;;;;;16.15;8.40;;;;;;;17.91;33.96;100503.84;5006393;28;20350;-67
2023/12/01 05:52:15;;;;;;;13.13;8.50;;;;;;;17.94;34.16;100507.06;5006429;28;20033;-66
2023/12/01 05:54:41;;;;;;;13.48;7.82;;;;;;;17.99;33.87;100506.69;5006713;28;20534;-65
2023/12/01 05:57:06;;;;;;;12.70;7.78;;;;;;;18.02;34.19;100506.38;5006398;28;20088;-66
2023/12/01 05:59:32;;;;;;;15.00;8.68;;;;;;;18.04;33.99;100501.84;5008673;28;20022;-66
2023/12/01 06:01:58;;;;;;;13.15;8.10;;;;;;;18.05;34.11;100503.50;5010028;28;20021;-66
2023/12/01 06:04:24;;;;;;;15.23;8.50;;;;;;;18.08;34.05;100511.13;5010298;28;20108;-66
2023/12/01 06:06:49;;;;;;;14.30;8.70;;;;;;;18.13;34.14;100511.59;5009593;28;20211;-67
2023/12/01 06:09:15;;;;;;;15.82;8.60;;;;;;;18.14;33.71;100509.78;5010466;28;20080;-66
2023/12/01 06:11:41;;;;;;;14.40;8.50;;;;;;;18.18;34.04;100513.81;5010001;28;20040;-65
2023/12/01 06:14:08;;;;;;;17.38;8.98;;;;;;;18.19;33.93;100510.22;5009785;28;20036;-65
2023/12/01 06:16:34;;;;;;;15.57;8.88;;;;;;;18.21;33.67;100510.91;5008914;28;20124;-66
2023/12/01 06:18:59;;;;;;;13.20;8.20;;;;;;;18.21;33.88;100512.72;5009713;28;20034;-66
2023/12/01 06:21:24;;;;;;;13.70;8.33;;;;;;;18.23;33.64;100511.63;5009486;28;20041;-66
2023/12/01 06:23:50;;;;;;;12.33;7.30;;;;;;;18.23;33.89;100514.25;5009745;28;20309;-66
2023/12/01 06:26:15;;;;;;;14.23;8.37;;;;;;;18.25;33.88;100517.59;5009198;28;20724;-66
2023/12/01 06:28:40;;;;;;;11.30;7.63;;;;;;;18.24;34.04;100509.81;5009592;28;20267;-67
2023/12/01 06:31:05;;;;;;;13.90;8.68;;;;;;;18.25;33.76;100520.22;5008798;28;20379;-66
2023/12/01 06:33:31;;;;;;;13.48;8.45;;;;;;;18.25;33.92;100517.59;5009535;28;20062;-66
2023/12/01 06:35:58;;;;;;;13.48;8.23;;;;;;;18.27;33.57;100526.19;5009469;28;20061;-65
2023/12/01 06:38:23;;;;;;;14.18;8.85;;;;;;;18.27;33.83;100512.19;5009384;28;20117;-65
2023/12/01 06:40:48;;;;;;;13.57;8.10;;;;;;;18.29;33.76;100524.28;5009100;28;20116;-66
2023/12/01 06:43:14;;;;;;;12.82;7.85;;;;;;;18.32;33.62;100533.72;5009430;28;20042;-66
2023/12/01 06:45:41;;;;;;;12.87;7.67;;;;;;;18.34;33.58;100531.81;5008878;28;20033;-66
2023/12/01 06:48:06;;;;;;;12.27;7.80;;;;;;;18.33;33.53;100529.31;5008697;28;20739;-66
2023/12/01 06:50:33;;;;;;;12.68;7.75;;;;;;;18.34;33.82;100531.81;5008431;28;20029;-66
2023/12/01 06:52:59;;;;;;;12.18;7.25;;;;;;;18.36;33.85;100527.22;5009194;28;20421;-66
2023/12/01 06:55:24;;;;;;;12.30;8.02;;;;;;;18.35;33.78;100536.09;5009332;28;20033;-65
2023/12/01 06:57:50;;;;;;;11.73;7.18;;;;;;;18.36;33.77;100537.78;5009440;28;20375;-66
2023/12/01 07:00:39;;;;;;;11.48;7.00;;;;;;;18.36;33.92;100537.78;5009057;28;20045;-65
2023/12/01 07:03:07;;;;;;;12.63;7.57;;;;;;;18.39;33.42;100537.50;5008989;28;20040;-66
2023/12/01 07:05:34;;;;;;;11.85;7.40;;;;;;;18.41;33.47;100537.38;5009141;28;20106;-66
2023/12/01 07:08:03;;;;;;;13.30;8.35;;;;;;;18.40;33.37;100544.44;5009049;28;20069;-65
2023/12/01 07:10:29;;;;;;;12.68;7.55;;;;;;;18.38;33.52;100542.91;5008016;28;20234;-67
2023/12/01 07:12:55;;;;;;;11.63;7.50;;;;;;;18.41;33.56;100547.94;5008497;28;20056;-65
2023/12/01 07:15:22;;;;;;;10.68;7.10;;;;;;;18.40;33.34;100549.72;5008937;28;20045;-65
2023/12/01 07:17:50;;;;;;;11.85;7.55;;;;;;;18.43;33.58;100551.25;5008269;28;20077;-65
2023/12/01 07:20:15;;;;;;;11.80;7.03;;;;;;;18.44;33.36;100561.69;5008658;28;20053;-66
2023/12/01 07:22:42;;;;;;;10.60;6.72;;;;;;;18.45;33.48;100555.44;5008418;28;20045;-65
2023/12/01 07:25:10;;;;;;;10.75;6.72;;;;;;;18.46;33.42;100558.91;5008733;28;20029;-67
2023/12/01 07:27:39;;;;;;;10.90;7.05;;;;;;;18.46;33.35;100558.91;5008474;28;20183;-65
2023/12/01 07:30:06;;;;;;;11.80;7.28;;;;;;;18.46;33.69;100557.09;5007892;28;20034;-67
2023/12/01 07:32:31;;;;;;;10.65;6.68;;;;;;;18.46;33.35;100554.47;5008205;28;20054;-66
2023/12/01 07:34:57;;;;;;;10.20;6.65;;;;;;;18.49;33.61;100558.66;5008337;28;20045;-65
2023/12/01 07:37:22;;;;;;;12.80;6.90;;;;;;;18.51;33.58;100553.22;5008213;28;20050;-66
2023/12/01 07:39:47;;;;;;;9.90;6.17;;;;;;;18.47;33.68;100555.31;5007547;28;20736;-66
2023/12/01 07:42:12;;;;;;;10.30;6.32;;;;;;;18.44;33.34;100552.94;5008207;28;20278;-66
2023/12/01 07:44:38;;;;;;;9.57;6.15;;;;;;;18.46;33.21;100554.47;5008034;28;20026;-65
2023/12/01 07:47:07;;;;;;;9.98;6.38;;;;;;;18.45;33.47;100557.22;5008033;28;20165;-66
2023/12/01 07:49:32;;;;;;;10.30;6.40;;;;;;;18.47;33.45;100558.78;5007542;28;20034;-66
2023/12/01 07:51:58;;;;;;;9.45;6.13;;;;;;;18.50;33.31;100547.13;5007633;28;20382;-66
2023/12/01 07:54:23;;;;;;;10.23;6.65;;;;;;;18.51;33.51;100550.59;5008191;28;20071;-65
2023/12/01 07:56:48;;;;;;;10.15;6.00;;;;;;;18.52;33.43;100546.97;5007667;28;20022;-65
2023/12/01 07:59:14;;;;;;;9.73;6.10;;;;;;;18.53;33.55;100560.03;5008061;28;20431;-66
2023/12/01 08:01:40;;;;;;;8.90;5.93;;;;;;;18.55;33.59;100557.25;5007186;28;20041;-66
2023/12/01 08:04:05;;;;;;;10.27;6.07;;;;;;;18.55;33.33;100554.63;5007370;28;20748;-66
2023/12/01 08:06:31;;;;;;;9.57;6.38;;;;;;;18.56;33.23;100551.03;5022118;28;20052;-66
2023/12/01 08:08:56;;;;;;;8.70;5.80;;;;;;;18.54;33.43;100552.97;5027017;28;20888;-65
2023/12/01 08:11:22;;;;;;;8.80;5.55;;;;;;;18.53;33.36;100552.13;5027326;28;20370;-67
2023/12/01 08:13:48;;;;;;;9.23;5.65;;;;;;;18.54;33.23;100552.97;5027199;28;20039;-65
2023/12/01 08:16:14;;;;;;;9.57;6.13;;;;;;;18.54;32.92;100556.44;5027702;28;20026;-65
2023/12/01 08:18:40;;;;;;;9.48;5.45;;;;;;;18.54;33.03;100560.88;5027089;28;20056;-65
2023/12/01 08:21:06;;;;;;;9.63;5.97;;;;;;;18.54;33.37;100567.00;5027079;28;20038;-66
2023/12/01 08:23:31;;;;;;;9.85;6.25;;;;;;;18.53;33.59;100565.31;5026964;28;20469;-65
2023/12/01 08:25:56;;;;;;;9.63;5.80;;;;;;;18.55;33.82;100571.31;5027118;28;20067;-66
2023/12/01 08:28:22;;;;;;;9.18;5.82;;;;;;;18.57;33.78;100577.28;5025741;28;20108;-65
2023/12/01 08:30:47;;;;;;;8.90;5.65;;;;;;;18.57;34.08;100581.72;5026325;28;20025;-64
2023/12/01 08:33:13;;;;;;;8.82;5.90;;;;;;;18.57;34.28;100582.56;5027002;28;20045;-66
2023/12/01 08:35:38;;;;;;;9.77;6.25;;;;;;;18.56;34.06;100580.88;5027294;28;20028;-65
2023/12/01 08:38:03;;;;;;;9.23;5.95;;;;;;;18.56;34.04;100580.06;5027033;28;20027;-65
2023/12/01 08:40:28;;;;;;;8.82;5.95;;;;;;;18.57;34.56;100582.56;5027069;28;20033;-67
2023/12/01 08:42:54;;;;;;;8.98;5.93;;;;;;;18.60;34.28;100586.75;5026653;28;20366;-65
2023/12/01 08:45:20;;;;;;;9.80;5.70;;;;;;;18.62;34.27;100587.44;5024087;28;20966;-66
2023/12/01 08:47:45;;;;;;;9.93;6.03;;;;;;;18.62;34.61;100582.16;5024144;28;20048;-66
2023/12/01 08:50:11;;;;;;;9.63;6.22;;;;;;;18.64;34.42;100591.63;5023752;28;20420;-67
2023/12/01 08:52:37;;;;;;;8.40;6.18;;;;;;;18.65;34.77;100592.44;5023967;28;20033;-65
2023/12/01 08:55:03;;;;;;;9.13;5.50;;;;;;;18.64;34.84;100588.97;5023507;28;20029;-66
2023/12/01 08:57:29;;;;;;;9.57;6.03;;;;;;;18.65;34.55;100592.44;5023859;28;20037;-65
2023/12/01 08:59:54;;;;;;;10.38;6.40;;;;;;;18.66;35.08;100592.31;5024622;28;20041;-66
2023/12/01 09:02:19;;;;;;;10.55;6.13;;;;;;;18.65;34.95;100595.09;5025779;28;20033;-64
2023/12/01 09:04:45;;;;;;;9.10;6.03;;;;;;;18.68;34.89;100595.66;5026779;28;20041;-65
2023/12/01 09:07:10;;;;;;;10.23;6.07;;;;;;;18.64;35.07;100601.31;5026632;28;20036;-66
2023/12/01 09:09:36;;;;;;;9.73;6.10;;;;;;;18.65;34.95;100603.00;5026031;28;20017;-66
2023/12/01 09:12:01;;;;;;;10.93;5.78;;;;;;;18.67;35.07;100607.19;5026300;28;20051;-65
2023/12/01 09:14:26;;;;;;;8.65;6.07;;;;;;;18.70;35.08;100603.44;5026625;28;20017;-64
2023/12/01 09:16:52;;;;;;;9.15;5.93;;;;;;;18.71;35.00;100605.13;5026535;28;20030;-64
2023/12/01 09:19:18;;;;;;;10.10;5.88;;;;;;;18.70;35.02;100605.25;5025614;28;20025;-65
2023/12/01 09:21:43;;;;;;;9.55;5.65;;;;;;;18.72;35.27;100613.84;5025875;28;20059;-65
2023/12/01 09:24:09;;;;;;;9.18;5.80;;;;;;;18.72;35.20;100617.31;5026371;28;20029;-66
2023/12/01 09:26:34;;;;;;;8.60;5.28;;;;;;;18.70;34.90;100605.25;5024675;28;20172;-67
2023/12/01 09:29:00;;;;;;;9.75;6.28;;;;;;;18.70;34.70;100614.00;5024218;28;20065;-66
2023/12/01 09:31:25;;;;;;;8.65;5.70;;;;;;;18.71;34.64;100623.59;5021544;28;20179;-63
2023/12/01 09:33:51;;;;;;;9.07;5.45;;;;;;;18.72;34.62;100627.88;5022854;28;20030;-66
2023/12/01 09:36:17;;;;;;;9.80;5.50;;;;;;;18.75;34.83;100629.44;5026423;28;20041;-69
2023/12/01 09:38:43;;;;;;;9.95;6.45;;;;;;;18.80;34.01;100622.78;5025743;28;20040;-65
2023/12/01 09:41:09;;;;;;;8.70;5.53;;;;;;;18.79;33.93;100625.56;5025991;28;20025;-65
2023/12/01 09:43:35;;;;;;;7.78;4.97;;;;;;;18.78;34.35;100629.16;5025729;28;20033;-67
2023/12/01 09:46:01;;;;;;;7.43;4.80;;;;;;;18.79;34.64;100630.84;5026057;28;20358;-64
2023/12/01 09:48:34;;;;;;;8.05;5.07;;;;;;;18.81;34.60;100636.81;5026793;28;20440;-65
2023/12/01 09:50:59;;;;;;;9.38;5.03;;;;;;;18.83;34.68;100643.66;5024815;28;20059;-66
2023/12/01 09:53:25;;;;;;;7.90;5.07;;;;;;;18.87;34.18;100641.59;5025288;28;20029;-70
2023/12/01 09:55:51;;;;;;;8.68;5.40;;;;;;;18.89;33.33;100642.28;5025039;28;20495;-64
2023/12/01 09:58:17;;;;;;;7.13;4.60;;;;;;;18.87;33.82;100648.66;5025130;28;20028;-64
2023/12/01 10:00:46;;;;;;;7.25;4.30;;;;;;;18.86;34.42;100639.91;5025753;28;20493;-65
2023/12/01 10:03:11;;;;;;;6.70;4.35;;;;;;;18.87;34.53;100644.25;5024753;28;20123;-67
2023/12/01 10:05:37;;;;;;;8.23;4.60;;;;;;;18.89;34.16;100641.47;5025660;28;20029;-66
2023/12/01 10:08:04;;;;;;;8.13;4.75;;;;;;;18.90;34.23;100643.13;5024946;28;20454;-66
2023/12/01 10:10:29;;;;;;;8.15;4.28;;;;;;;18.91;33.67;100637.69;5025331;28;20784;-66
2023/12/01 10:13:04;;;;;;;7.57;4.40;;;;;;;18.93;34.13;100640.22;5025073;28;20408;-67
2023/12/01 10:15:31;;;;;;;7.20;4.47;;;;;;;18.94;33.91;100641.91;5024713;28;20068;-66
2023/12/01 10:18:10;;;;;;;7.30;4.70;;;;;;;18.94;33.94;100636.63;5025044;28;20053;-65
2023/12/01 10:20:36;;;;;;;6.53;4.07;;;;;;;18.94;34.20;100640.06;5024336;28;20840;-64
2023/12/01 10:23:16;;;;;;;6.85;4.05;;;;;;;18.95;34.11;100635.66;5024559;28;20516;-67
2023/12/01 10:25:49;;;;;;;7.25;4.07;;;;;;;18.95;34.13;100638.28;5024715;28;20021;-64
2023/12/01 10:28:16;;;;;;;7.80;3.83;;;;;;;18.98;34.00;100638.03;5023487;28;20030;-67
2023/12/01 10:30:54;;;;;;;6.57;4.10;;;;;;;19.01;33.04;100629.84;5024135;28;20087;-68
2023/12/01 10:33:21;;;;;;;7.25;4.20;;;;;;;19.02;33.50;100629.66;5024272;28;20076;-68
2023/12/01 10:36:09;;;;;;;8.10;5.05;;;;;;;19.06;32.89;100643.47;5024340;28;20073;-68
2023/12/01 10:38:35;;;;;;;6.97;3.92;;;;;;;19.09;33.19;100635.25;5023348;28;20040;-66
2023/12/01 10:41:05;;;;;;;8.82;4.72;;;;;;;19.05;33.37;100630.38;5023827;28;20117;-67
2023/12/01 10:43:31;;;;;;;7.25;4.15;;;;;;;19.06;33.20;100635.53;5024282;28;20434;-66
2023/12/01 10:46:02;;;;;;;6.90;4.00;;;;;;;19.03;33.23;100633.16;5022750;28;20426;-64
2023/12/01 10:48:29;;;;;;;7.63;4.47;;;;;;;19.05;33.40;100630.38;5024117;28;20029;-64
2023/12/01 10:50:55;;;;;;;6.30;3.75;;;;;;;19.08;33.53;100630.13;5023631;28;20481;-64
2023/12/01 10:53:22;;;;;;;7.95;4.13;;;;;;;19.07;33.48;100631.91;5023857;28;20120;-62
2023/12/01 10:55:48;;;;;;;6.25;3.35;;;;;;;19.06;33.53;100630.25;5023768;28;20116;-64
2023/12/01 10:58:24;;;;;;;7.90;4.22;;;;;;;19.07;33.52;100634.53;5023929;28;20123;-67
2023/12/01 11:00:50;;;;;;;5.70;3.42;;;;;;;19.10;33.61;100628.16;5024599;28;20029;-66
2023/12/01 11:03:22;;;;;;;6.60;4.05;;;;;;;19.09;33.17;100624.69;5006014;28;20577;-68
2023/12/01 11:05:56;;;;;;;7.00;3.92;;;;;;;19.07;33.59;100620.50;5024019;28;20437;-67
2023/12/01 11:08:36;;;;;;;6.53;3.95;;;;;;;19.11;33.30;100624.56;5024247;28;20431;-65
2023/12/01 11:11:14;;;;;;;6.70;3.83;;;;;;;19.09;33.22;100629.97;5023095;28;20029;-65
2023/12/01 11:13:59;;;;;;;5.72;3.42;;;;;;;19.09;33.20;100632.63;5023684;28;20547;-65
2023/12/01 11:16:26;;;;;;;6.95;3.60;;;;;;;19.08;33.39;100630.94;5023877;28;20083;-67
2023/12/01 11:18:54;;;;;;;6.43;3.80;;;;;;;19.06;32.96;100619.69;5023742;28;20033;-67